createdAt,value
2022-09-20T00:02:48.350Z,3.70
2022-09-20T00:05:51.194Z,3.50
2022-09-20T00:08:54.764Z,3.13
2022-09-20T00:11:59.564Z,2.92
2022-09-20T00:15:04.769Z,2.45
2022-09-20T00:18:07.476Z,2.90
2022-09-20T00:21:16.912Z,2.00
2022-09-20T00:24:20.322Z,1.85
2022-09-20T00:27:24.384Z,3.67
2022-09-20T00:30:27.250Z,3.13
2022-09-20T00:33:50.250Z,3.27
2022-09-20T00:36:52.112Z,2.53
2022-09-20T00:39:54.972Z,2.75
2022-09-20T00:42:59.044Z,2.90
2022-09-20T00:46:03.960Z,2.75
2022-09-20T00:49:13.001Z,3.20
2022-09-20T00:52:17.109Z,2.03
2022-09-20T00:55:21.423Z,2.20
2022-09-20T00:58:28.613Z,2.78
2022-09-20T01:01:31.986Z,2.60
2022-09-20T01:04:39.088Z,2.30
2022-09-20T01:07:43.762Z,1.80
2022-09-20T01:10:47.291Z,2.47
2022-09-20T01:13:54.454Z,1.95
2022-09-20T01:17:03.668Z,2.35
2022-09-20T01:20:16.788Z,4.73
2022-09-20T01:23:45.353Z,1.97
2022-09-20T01:27:07.857Z,2.15
2022-09-20T01:30:17.300Z,2.67
2022-09-20T01:33:29.607Z,2.58
2022-09-20T01:36:38.989Z,3.20
2022-09-20T01:39:53.761Z,2.87
2022-09-20T01:43:04.268Z,2.72
2022-09-20T01:46:21.432Z,2.10
2022-09-20T01:49:31.752Z,2.85
2022-09-20T01:53:08.942Z,2.30
2022-09-20T01:56:42.255Z,2.17
2022-09-20T02:00:08.141Z,1.83
2022-09-20T02:03:37.205Z,2.03
2022-09-20T02:07:08.805Z,2.22
2022-09-20T02:10:33.013Z,2.67
2022-09-20T02:13:54.990Z,2.70
2022-09-20T02:17:04.501Z,1.95
2022-09-20T02:20:21.153Z,2.15
2022-09-20T02:23:41.964Z,1.95
2022-09-20T02:26:58.525Z,2.17
2022-09-20T02:30:25.135Z,2.53
2022-09-20T02:33:52.639Z,3.20
2022-09-20T02:37:16.607Z,2.65
2022-09-20T02:40:31.417Z,1.90
2022-09-20T02:43:41.955Z,2.17
2022-09-20T02:46:54.047Z,2.73
2022-09-20T02:50:12.715Z,1.70
2022-09-20T02:53:38.178Z,2.72
2022-09-20T02:56:48.835Z,1.80
2022-09-20T02:59:57.950Z,1.60
2022-09-20T03:03:10.068Z,2.27
2022-09-20T03:06:22.532Z,1.95
2022-09-20T03:09:36.042Z,1.75
2022-09-20T03:12:56.351Z,1.80
2022-09-20T03:16:06.533Z,1.83
2022-09-20T03:19:23.325Z,2.30
2022-09-20T03:22:37.157Z,1.73
2022-09-20T03:25:56.044Z,2.13
2022-09-20T03:29:04.011Z,2.25
2022-09-20T03:32:23.723Z,1.85
2022-09-20T03:35:42.439Z,3.67
2022-09-20T03:39:12.159Z,1.57
2022-09-20T03:42:20.844Z,1.40
2022-09-20T03:45:59.550Z,2.28
2022-09-20T03:49:47.637Z,2.10
2022-09-20T03:53:08.069Z,2.67
2022-09-20T03:56:27.033Z,1.60
2022-09-20T03:59:54.177Z,3.33
2022-09-20T04:03:04.807Z,1.95
2022-09-20T04:06:49.047Z,2.50
2022-09-20T04:10:17.366Z,2.50
2022-09-20T04:13:35.677Z,2.07
2022-09-20T04:16:47.349Z,2.45
2022-09-20T04:19:54.901Z,2.97
2022-09-20T04:23:02.533Z,2.72
2022-09-20T04:26:05.675Z,1.70
2022-09-20T04:29:29.051Z,2.87
2022-09-20T04:32:41.258Z,2.50
2022-09-20T04:36:06.765Z,2.97
2022-09-20T04:39:18.971Z,2.70
2022-09-20T04:42:51.978Z,4.27
2022-09-20T04:46:22.825Z,2.33
2022-09-20T04:49:57.914Z,2.53
2022-09-20T04:53:30.951Z,3.45
2022-09-20T04:56:52.205Z,3.40
2022-09-20T05:00:05.794Z,2.23
2022-09-20T05:03:33.104Z,3.30
2022-09-20T05:07:01.723Z,3.50
2022-09-20T05:10:27.154Z,2.72
2022-09-20T05:13:43.283Z,3.47
2022-09-20T05:17:02.789Z,2.63
2022-09-20T05:20:27.798Z,2.63
2022-09-20T05:23:58.283Z,3.05
2022-09-20T05:27:19.744Z,3.25
2022-09-20T05:30:35.190Z,2.85
2022-09-20T05:33:49.092Z,2.80
2022-09-20T05:37:00.717Z,3.53
2022-09-20T05:40:16.585Z,2.65
2022-09-20T05:43:28.867Z,2.92
2022-09-20T05:46:37.762Z,2.35
2022-09-20T05:49:53.070Z,3.63
2022-09-20T05:53:00.515Z,3.63
2022-09-20T05:56:15.773Z,2.83
2022-09-20T05:59:31.964Z,4.32
2022-09-20T06:02:49.206Z,2.80
2022-09-20T06:05:59.468Z,2.77
2022-09-20T06:09:19.853Z,4.27
2022-09-20T06:13:19.925Z,2.78
2022-09-20T06:16:33.731Z,2.10
2022-09-20T06:19:42.452Z,3.65
2022-09-20T06:22:47.599Z,2.97
2022-09-20T06:25:57.442Z,2.33
2022-09-20T06:29:04.400Z,2.65
2022-09-20T06:32:08.299Z,3.20
2022-09-20T06:35:11.291Z,3.05
2022-09-20T06:38:51.252Z,3.73
2022-09-20T06:41:54.727Z,3.10
2022-09-20T06:44:59.103Z,3.72
2022-09-20T06:48:03.411Z,3.58
2022-09-20T06:51:06.301Z,4.28
2022-09-20T06:54:15.435Z,3.20
2022-09-20T06:57:21.250Z,3.63
2022-09-20T07:00:24.353Z,4.93
2022-09-20T07:03:28.437Z,4.45
2022-09-20T07:06:31.055Z,2.78
2022-09-20T07:09:33.680Z,3.57
2022-09-20T07:12:36.569Z,4.10
2022-09-20T07:15:39.338Z,3.15
2022-09-20T07:18:44.635Z,4.47
2022-09-20T07:21:47.352Z,4.75
2022-09-20T07:24:50.087Z,3.97
2022-09-20T07:27:52.732Z,4.53
2022-09-20T07:30:55.327Z,3.40
2022-09-20T07:33:59.352Z,3.97
2022-09-20T07:37:02.389Z,4.30
2022-09-20T07:40:06.497Z,3.43
2022-09-20T07:43:09.235Z,3.30
2022-09-20T07:46:13.664Z,2.80
2022-09-20T07:49:17.871Z,3.20
2022-09-20T07:52:20.518Z,3.88
2022-09-20T07:55:23.234Z,2.90
2022-09-20T07:58:26.361Z,3.33
2022-09-20T08:01:29.496Z,2.17
2022-09-20T08:04:33.576Z,3.67
2022-09-20T08:07:36.204Z,3.97
2022-09-20T08:10:41.408Z,2.70
2022-09-20T08:17:12.414Z,2.72
2022-09-20T08:20:16.938Z,2.87
2022-09-20T08:23:23.685Z,3.33
2022-09-20T08:26:30.418Z,3.78
2022-09-20T08:29:33.166Z,4.78
2022-09-20T08:32:35.719Z,3.92
2022-09-20T08:35:39.681Z,4.13
2022-09-20T08:42:14.413Z,3.90
2022-09-20T08:45:33.703Z,3.67
2022-09-20T08:48:37.367Z,3.22
2022-09-20T08:51:48.508Z,3.63
2022-09-20T08:54:51.386Z,5.22
2022-09-20T08:57:56.639Z,4.40
2022-09-20T09:01:00.172Z,3.95
2022-09-20T09:04:13.817Z,4.85
2022-09-20T09:07:21.711Z,5.23
2022-09-20T09:10:24.333Z,3.97
2022-09-20T09:13:33.398Z,3.75
2022-09-20T09:16:36.428Z,4.25
2022-09-20T09:19:48.249Z,3.88
2022-09-20T09:23:02.723Z,4.37
2022-09-20T09:26:06.708Z,4.13
2022-09-20T09:29:15.911Z,4.65
2022-09-20T09:32:24.055Z,4.20
2022-09-20T09:35:30.630Z,7.65
2022-09-20T09:38:37.612Z,5.07
2022-09-20T09:41:40.646Z,4.78
2022-09-20T09:44:43.357Z,6.50
2022-09-20T09:47:46.191Z,4.63
2022-09-20T09:50:48.871Z,4.13
2022-09-20T09:53:55.199Z,4.43
2022-09-20T09:57:12.069Z,3.75
2022-09-20T10:00:21.962Z,4.32
2022-09-20T10:03:39.446Z,3.72
2022-09-20T10:06:52.189Z,5.07
2022-09-20T10:10:09.065Z,4.30
2022-09-20T10:13:20.931Z,4.43
2022-09-20T10:16:35.910Z,5.35
2022-09-20T10:19:49.757Z,5.13
2022-09-20T10:23:34.443Z,4.40
2022-09-20T10:26:39.991Z,4.60
2022-09-20T10:29:54.727Z,4.88
2022-09-20T10:33:07.351Z,5.28
2022-09-20T10:36:25.295Z,5.57
2022-09-20T10:39:32.802Z,4.70
2022-09-20T10:43:04.288Z,5.63
2022-09-20T10:46:31.795Z,4.93
2022-09-20T10:49:37.639Z,5.05
2022-09-20T10:53:06.541Z,5.15
2022-09-20T10:56:24.017Z,3.92
2022-09-20T10:59:38.708Z,3.57
2022-09-20T11:02:53.855Z,5.07
2022-09-20T11:06:09.288Z,4.85
2022-09-20T11:09:18.759Z,6.20
2022-09-20T11:12:26.924Z,5.88
2022-09-20T11:15:36.392Z,3.17
2022-09-20T11:18:44.975Z,2.28
2022-09-20T11:21:54.387Z,3.55
2022-09-20T11:25:04.016Z,4.07
2022-09-20T11:28:13.785Z,4.85
2022-09-20T11:31:24.855Z,4.33
2022-09-20T11:34:31.127Z,4.43
2022-09-20T11:37:37.391Z,4.95
2022-09-20T11:40:46.402Z,5.55
2022-09-20T11:43:50.679Z,4.68
2022-09-20T11:47:01.237Z,5.07
2022-09-20T11:50:32.987Z,5.18
2022-09-20T11:53:48.697Z,5.68
2022-09-20T11:56:53.005Z,6.22
2022-09-20T12:00:01.163Z,5.90
2022-09-20T12:03:09.756Z,5.60
2022-09-20T12:06:27.478Z,5.30
2022-09-20T12:09:32.841Z,3.78
2022-09-20T12:12:41.651Z,3.97
2022-09-20T12:15:44.394Z,3.35
2022-09-20T12:19:05.404Z,3.10
2022-09-20T12:22:29.367Z,3.20
2022-09-20T12:25:40.614Z,2.63
2022-09-20T12:28:45.321Z,3.83
2022-09-20T12:31:49.137Z,3.10
2022-09-20T12:34:53.539Z,4.17
2022-09-20T12:37:56.585Z,4.65
2022-09-20T12:41:01.574Z,1.95
2022-09-20T12:44:24.196Z,1.30
2022-09-20T12:47:30.132Z,2.17
2022-09-20T12:50:51.664Z,2.97
2022-09-20T12:54:07.564Z,2.22
2022-09-20T12:57:19.135Z,2.42
2022-09-20T13:00:34.477Z,2.33
2022-09-20T13:03:39.459Z,2.20
2022-09-20T13:06:45.128Z,1.33
2022-09-20T13:09:49.281Z,1.98
2022-09-20T13:12:57.085Z,1.52
2022-09-20T13:16:01.290Z,1.38
2022-09-20T13:19:08.413Z,2.88
2022-09-20T13:22:17.336Z,1.27
2022-09-20T13:25:22.029Z,1.65
2022-09-20T13:28:35.130Z,2.05
2022-09-20T13:31:38.184Z,2.50
2022-09-20T13:34:41.042Z,1.58
2022-09-20T13:37:54.112Z,1.70
2022-09-20T13:41:04.594Z,3.03
2022-09-20T13:44:07.343Z,1.27
2022-09-20T13:47:27.362Z,3.42
2022-09-20T13:50:34.715Z,1.63
2022-09-20T13:53:42.336Z,1.60
2022-09-20T13:56:45.571Z,1.40
2022-09-20T13:59:49.775Z,2.72
2022-09-20T14:02:54.702Z,1.88
2022-09-20T14:06:00.545Z,2.05
2022-09-20T14:09:11.069Z,1.63
2022-09-20T14:12:14.862Z,1.85
2022-09-20T14:15:17.832Z,2.38
2022-09-20T14:18:22.404Z,1.25
2022-09-20T14:21:27.241Z,2.38
2022-09-20T14:24:35.287Z,1.87
2022-09-20T14:27:38.072Z,2.38
2022-09-20T14:30:40.891Z,0.95
2022-09-20T14:33:49.807Z,1.70
2022-09-20T14:37:06.470Z,1.42
2022-09-20T14:40:22.786Z,1.87
2022-09-20T14:43:31.347Z,1.95
2022-09-20T14:46:36.038Z,1.02
2022-09-20T14:49:41.907Z,0.80
2022-09-20T14:52:45.315Z,1.25
2022-09-20T14:56:01.632Z,1.90
2022-09-20T14:59:26.108Z,1.50
2022-09-20T15:02:28.846Z,3.03
2022-09-20T15:05:31.549Z,2.75
2022-09-20T15:08:35.594Z,1.92
2022-09-20T15:11:40.689Z,1.00
2022-09-20T15:14:44.975Z,2.17
2022-09-20T15:17:48.745Z,2.17
2022-09-20T15:20:52.214Z,1.92
2022-09-20T15:23:54.982Z,1.38
2022-09-20T15:26:58.885Z,2.03
2022-09-20T15:30:01.614Z,1.83
2022-09-20T15:33:04.520Z,1.00
2022-09-20T15:36:08.051Z,1.27
2022-09-20T15:39:10.597Z,1.10
2022-09-20T15:42:14.958Z,2.73
2022-09-20T15:45:18.264Z,1.42
2022-09-20T15:48:22.388Z,1.27
2022-09-20T15:51:25.111Z,1.45
2022-09-20T15:54:27.726Z,1.08
2022-09-20T15:57:32.568Z,2.50
2022-09-20T16:00:35.731Z,3.42
2022-09-20T16:03:38.696Z,2.90
2022-09-20T16:06:44.061Z,3.97
2022-09-20T16:09:46.634Z,2.58
2022-09-20T16:12:50.720Z,2.50
2022-09-20T16:15:57.333Z,2.70
2022-09-20T16:19:19.639Z,2.53
2022-09-20T16:22:22.321Z,2.20
2022-09-20T16:25:25.198Z,1.77
2022-09-20T16:28:29.161Z,1.77
2022-09-20T16:31:34.753Z,2.63
2022-09-20T16:34:38.553Z,1.60
2022-09-20T16:37:41.173Z,3.08
2022-09-20T16:40:44.014Z,3.93
2022-09-20T16:43:52.144Z,2.27
2022-09-20T16:46:54.737Z,2.22
2022-09-20T16:49:57.434Z,3.70
2022-09-20T16:53:00.148Z,1.75
2022-09-20T16:56:07.621Z,1.57
2022-09-20T16:59:12.549Z,1.97
2022-09-20T17:02:17.333Z,1.50
2022-09-20T17:05:19.898Z,1.80
2022-09-20T17:08:23.315Z,2.33
2022-09-20T17:11:27.791Z,1.90
2022-09-20T17:14:31.839Z,3.53
2022-09-20T17:17:34.681Z,3.05
2022-09-20T17:20:39.099Z,3.70
2022-09-20T17:23:45.557Z,3.30
2022-09-20T17:26:52.298Z,2.37
2022-09-20T17:29:56.446Z,2.73
2022-09-20T17:32:59.284Z,3.60
2022-09-20T17:36:03.124Z,3.45
2022-09-20T17:39:06.843Z,3.70
2022-09-20T17:42:09.383Z,5.43
2022-09-20T17:45:13.660Z,6.60
2022-09-20T17:48:16.235Z,7.30
2022-09-20T17:51:20.816Z,7.10
2022-09-20T17:54:24.677Z,6.22
2022-09-20T17:57:27.370Z,5.40
2022-09-20T18:00:31.340Z,5.10
2022-09-20T18:03:38.163Z,6.05
2022-09-20T18:06:43.253Z,5.93
2022-09-20T18:09:45.807Z,6.25
2022-09-20T18:12:48.505Z,6.37
2022-09-20T18:15:52.453Z,8.87
2022-09-20T18:18:55.531Z,8.75
2022-09-20T18:21:58.101Z,10.30
2022-09-20T18:25:00.691Z,10.38
2022-09-20T18:28:03.260Z,10.07
2022-09-20T18:31:08.711Z,9.43
2022-09-20T18:34:18.130Z,8.13
2022-09-20T18:37:20.843Z,8.25
2022-09-20T18:40:23.592Z,9.57
2022-09-20T18:43:26.866Z,9.23
2022-09-20T18:46:31.645Z,8.80
2022-09-20T18:49:34.634Z,8.35
2022-09-20T18:52:38.742Z,7.35
2022-09-20T18:55:43.989Z,8.45
2022-09-20T18:58:47.392Z,8.40
2022-09-20T19:02:24.722Z,10.40
2022-09-20T19:05:35.229Z,9.55
2022-09-20T19:08:46.567Z,12.48
2022-09-20T19:12:00.878Z,8.52
2022-09-20T19:15:21.404Z,8.73
2022-09-20T19:18:38.201Z,8.47
2022-09-20T19:21:47.483Z,8.10
2022-09-20T19:25:04.971Z,7.90
2022-09-20T19:28:10.855Z,8.75
2022-09-20T19:31:21.118Z,8.50
2022-09-20T19:34:27.715Z,9.50
2022-09-20T19:37:38.030Z,9.00
2022-09-20T19:40:50.201Z,10.20
2022-09-20T19:44:18.226Z,8.25
2022-09-20T19:47:30.778Z,7.77
2022-09-20T19:50:41.143Z,9.23
2022-09-20T19:53:44.369Z,9.23
2022-09-20T19:56:55.158Z,8.38
2022-09-20T19:59:58.344Z,7.75
2022-09-20T20:03:01.590Z,7.97
2022-09-20T20:06:16.222Z,7.80
2022-09-20T20:09:28.731Z,8.35
2022-09-20T20:12:36.825Z,8.23
2022-09-20T20:15:46.255Z,8.43
2022-09-20T20:19:05.907Z,8.13
2022-09-20T20:22:23.825Z,7.80
2022-09-20T20:25:41.491Z,7.75
2022-09-20T20:28:44.239Z,8.73
2022-09-20T20:31:47.003Z,7.45
2022-09-20T20:34:50.430Z,8.20
2022-09-20T20:37:54.565Z,8.43
2022-09-20T20:41:04.429Z,10.07
2022-09-20T20:44:08.396Z,9.52
2022-09-20T20:47:11.455Z,10.85
2022-09-20T20:50:14.433Z,9.43
2022-09-20T20:53:18.644Z,9.60
2022-09-20T20:56:22.871Z,8.77
2022-09-20T20:59:25.597Z,10.30
2022-09-20T21:02:29.263Z,9.75
2022-09-20T21:05:32.401Z,10.30
2022-09-20T21:08:38.228Z,9.17
2022-09-20T21:11:43.219Z,9.50
2022-09-20T21:14:45.908Z,10.02
2022-09-20T21:17:51.980Z,9.25
2022-09-20T21:20:54.654Z,9.25
2022-09-20T21:24:00.444Z,9.00
2022-09-20T21:27:05.063Z,11.02
2022-09-20T21:30:09.412Z,11.85
2022-09-20T21:33:11.973Z,11.68
2022-09-20T21:36:16.798Z,11.55
2022-09-20T21:39:20.861Z,10.90
2022-09-20T21:42:25.424Z,10.38
2022-09-20T21:45:29.709Z,9.85
2022-09-20T21:48:32.314Z,9.13
2022-09-20T21:51:35.945Z,9.10
2022-09-20T21:54:39.948Z,9.60
2022-09-20T21:57:42.505Z,10.73
2022-09-20T22:00:56.397Z,11.13
2022-09-20T22:04:01.028Z,10.73
2022-09-20T22:07:04.619Z,10.93
2022-09-20T22:10:09.779Z,10.70
2022-09-20T22:13:12.343Z,9.27
2022-09-20T22:16:16.856Z,9.48
2022-09-20T22:19:20.428Z,9.40
2022-09-20T22:22:23.025Z,10.27
2022-09-20T22:25:27.072Z,9.03
2022-09-20T22:28:29.672Z,8.38
2022-09-20T22:31:33.943Z,9.38
2022-09-20T22:34:36.675Z,8.50
2022-09-20T22:37:39.424Z,8.38
2022-09-20T22:40:53.373Z,7.37
2022-09-20T22:43:56.520Z,7.75
2022-09-20T22:46:59.237Z,8.25
2022-09-20T22:50:01.977Z,7.97
2022-09-20T22:53:04.572Z,8.30
2022-09-20T22:56:11.156Z,8.53
2022-09-20T22:59:15.239Z,8.93
2022-09-20T23:02:18.061Z,9.32
2022-09-20T23:05:20.781Z,9.05
2022-09-20T23:08:25.071Z,8.98
2022-09-20T23:11:29.731Z,9.20
2022-09-20T23:14:32.495Z,8.60
2022-09-20T23:17:35.218Z,9.13
2022-09-20T23:20:38.282Z,9.40
2022-09-20T23:23:43.184Z,9.77
2022-09-20T23:26:47.740Z,9.83
2022-09-20T23:29:50.317Z,7.75
2022-09-20T23:32:54.924Z,9.60
2022-09-20T23:35:58.317Z,9.35
2022-09-20T23:39:01.285Z,8.88
2022-09-20T23:42:05.875Z,8.50
2022-09-20T23:45:10.134Z,8.90
2022-09-20T23:48:12.893Z,7.90
2022-09-20T23:51:17.589Z,8.45
2022-09-20T23:54:20.139Z,8.48
2022-09-20T23:57:24.181Z,9.10
